Flight Track Log - Related Links

Times and Time Zones

All times are in EDT time to prevent confusion due to time zone crossing. See the AWE914 flight status page for this flight to view local times or setup timezone preferences in your user account.

Time Position Orientation Groundspeed Altitude Reporting Facility
EDT Latitude Longitude Course Direction KTS MPH feet Rate Location/Type
Thu 03:05:45 AM 33.4333 -112.0333 82° East 159 183 2,200  Level Phoenix TRACON
Thu 03:06:39 AM 33.4333 -112.0833 270° West 186 214 3,300 1,278 Climbing Phoenix TRACON
Thu 03:07:33 AM 33.4000 -112.1500 239° Southwest 243 280 4,500 1,548 Climbing Phoenix TRACON
Thu 03:08:12 AM 33.3742 -112.1842 228° Southwest 285 328 5,700 2,100 Climbing Albuquerque Center
Thu 03:09:13 AM 33.3056 -112.1394 151° Southeast 302 348 8,000 2,281 Climbing Albuquerque Center
Thu 03:10:13 AM 33.3206 -112.0447 79° East 300 345 10,300 1,686 Climbing Albuquerque Center
Thu 03:11:00 AM 33.5157 -111.2257 82° East  Level FlightAware Approximate
Thu 03:11:14 AM 33.3486 -111.9403 72° East 335 386 11,400  Level Albuquerque Center
Thu 03:12:14 AM 33.3806 -111.8242 72° East 369 425 13,300 2,083 Climbing Albuquerque Center
Thu 03:13:15 AM 33.4131 -111.7064 72° East 375 432 15,600 2,132 Climbing Albuquerque Center
Thu 03:14:15 AM 33.4453 -111.5872 72° East 379 436 17,600 2,050 Climbing Albuquerque Center
Thu 03:15:15 AM 33.4781 -111.4675 72° East 382 440 19,700 1,587 Climbing Albuquerque Center
Thu 03:16:16 AM 33.5069 -111.3411 75° East 396 456 20,800 1,240 Climbing Albuquerque Center
Thu 03:17:16 AM 33.5225 -111.2036 82° East 418 481 22,200 1,300 Climbing Albuquerque Center
Thu 03:18:16 AM 33.5375 -111.0650 83° East 422 486 23,400 1,190 Climbing Albuquerque Center
Thu 03:19:17 AM 33.5542 -110.9222 82° East 430 495 24,600 1,140 Climbing Albuquerque Center
Thu 03:20:17 AM 33.5914 -110.7831 72° East 441 507 25,700 1,140 Climbing Albuquerque Center
Thu 03:21:18 AM 33.6358 -110.6483 68° East 438 504 26,900 645 Climbing Albuquerque Center
Thu 03:22:18 AM 33.6800 -110.5108 69° East 441 507 27,000 50 Climbing Albuquerque Center
Thu 03:23:18 AM 33.7331 -110.3475 69° East 441 507 27,000  Level Albuquerque Center
Thu 03:24:19 AM 33.7764 -110.2106 69° East 440 506 27,000  Level Albuquerque Center
Thu 03:25:19 AM 33.8206 -110.0767 68° East 435 501 27,000  Level Albuquerque Center
Thu 03:26:20 AM 33.8592 -109.9503 70° East 435 501 27,000  Level Albuquerque Center
Thu 03:27:20 AM 33.9078 -109.7989 69° East 435 501 27,000  Level Albuquerque Center
Thu 03:28:20 AM 33.9500 -109.6672 69° East 438 504 27,000  Level Albuquerque Center
Thu 03:29:21 AM 33.9906 -109.5369 69° East 437 503 27,000  Level Albuquerque Center
Thu 03:30:21 AM 34.0361 -109.3853 70° East 432 497 27,000  Level Albuquerque Center
Thu 03:31:21 AM 34.0775 -109.2567 69° East 431 496 27,000  Level Albuquerque Center
Thu 03:32:22 AM 34.1181 -109.1272 69° East 432 497 27,000  Level Albuquerque Center
Thu 03:33:22 AM 34.1792 -109.0069 58° Northeast 441 507 27,000  Level Albuquerque Center
Thu 03:34:23 AM 34.2522 -108.8689 57° Northeast 439 505 27,000  Level Albuquerque Center
Thu 03:35:23 AM 34.3150 -108.7492 58° Northeast 440 506 27,000  Level Albuquerque Center
Thu 03:36:23 AM 34.3775 -108.6314 57° Northeast 437 503 27,000  Level Albuquerque Center
Thu 03:37:24 AM 34.4475 -108.4906 59° Northeast 437 503 27,000  Level Albuquerque Center
Thu 03:38:24 AM 34.5003 -108.3906 57° Northeast 428 493 27,000  Level Albuquerque Center
Thu 03:39:25 AM 34.5561 -108.2625 62° Northeast 428 493 27,000  Level Albuquerque Center
Thu 03:40:25 AM 34.6039 -108.1278 67° East 432 497 27,000  Level Albuquerque Center
Thu 03:41:25 AM 34.6553 -107.9944 65° Northeast 436 502 27,000  Level Albuquerque Center
Thu 03:42:26 AM 34.7072 -107.8597 65° Northeast 439 505 27,000  Level Albuquerque Center
Thu 03:43:26 AM 34.7583 -107.7233 65° Northeast 442 509 27,000  Level Albuquerque Center
Thu 03:44:26 AM 34.8106 -107.5881 65° Northeast 443 510 27,000  Level Albuquerque Center
Thu 03:45:27 AM 34.8611 -107.4511 66° East 443 510 27,000  Level Albuquerque Center
Thu 03:46:27 AM 34.9114 -107.3139 66° East 444 511 27,000  Level Albuquerque Center
Thu 03:47:27 AM 34.9739 -107.1494 65° Northeast 448 516 27,000  Level Albuquerque Center
Thu 03:48:28 AM 35.0222 -107.0192 66° East 442 509 27,000  Level Albuquerque Center
Thu 03:49:28 AM 35.0700 -106.8878 66° East 442 509 27,000  Level Albuquerque Center
Thu 03:50:28 AM 35.1250 -106.7369 66° East 437 503 27,000  Level Albuquerque Center
Thu 03:51:29 AM 35.1733 -106.6050 66° East 442 509 27,000  Level Albuquerque Center
Thu 03:52:29 AM 35.2203 -106.4747 66° East 450 518 27,000  Level Albuquerque Center
Thu 03:53:29 AM 35.2706 -106.3344 66° East 452 520 27,000  Level Albuquerque Center
Thu 03:54:30 AM 35.3247 -106.1808 67° East 440 506 27,000  Level Albuquerque Center
Thu 03:55:30 AM 35.3731 -106.0450 66° East 434 499 27,000  Level Albuquerque Center
Thu 03:56:30 AM 35.4189 -105.9264 65° Northeast 442 509 27,000  Level Albuquerque Center
Thu 03:57:31 AM 35.4750 -105.7675 67° East 440 506 27,000  Level Albuquerque Center
Thu 03:58:31 AM 35.5242 -105.6289 66° East 440 506 27,000  Level Albuquerque Center
Thu 03:59:31 AM 35.5697 -105.4933 68° East 429 494 27,000  Level Albuquerque Center
Thu 04:00:32 AM 35.6086 -105.3789 67° East 429 494 27,000  Level Albuquerque Center
Thu 04:01:32 AM 35.6606 -105.2367 66° East 444 511 27,000 700 Level Albuquerque Center
Thu 04:02:32 AM 35.7058 -105.1025 67° East 428 493 28,400 1,190 Climbing Albuquerque Center
Thu 04:03:33 AM 35.7525 -104.9686 67° East 422 486 29,400 1,091 Climbing Albuquerque Center
Thu 04:04:33 AM 35.7994 -104.8306 67° East 428 493 30,600 1,150 Climbing Albuquerque Center
Thu 04:05:33 AM 35.8478 -104.6900 67° East 436 502 31,700 1,289 Climbing Albuquerque Center
Thu 04:06:34 AM 35.8975 -104.5483 67° East 442 509 33,200 1,587 Climbing Albuquerque Center
Thu 04:07:34 AM 35.9428 -104.4111 68° East 433 498 34,900 1,350 Climbing Albuquerque Center
Thu 04:08:34 AM 35.9892 -104.2767 67° East 424 488 35,900 992 Climbing Albuquerque Center
Thu 04:09:35 AM 36.0339 -104.1417 68° East 421 484 36,900 545 Climbing Albuquerque Center
Thu 04:10:35 AM 36.0719 -104.0014 71° East 425 489 37,000 50 Climbing Albuquerque Center
Thu 04:11:35 AM 36.1106 -103.8619 71° East 424 488 37,000  Level Albuquerque Center
Thu 04:12:36 AM 36.1500 -103.7239 70° East 423 487 37,000  Level Albuquerque Center
Thu 04:13:36 AM 36.1883 -103.5867 71° East 419 482 37,000  Level Albuquerque Center
Thu 04:14:36 AM 36.2264 -103.4461 71° East 424 488 37,000  Level Albuquerque Center
Thu 04:15:36 AM 36.2639 -103.3047 72° East 426 490 37,000  Level Albuquerque Center
Thu 04:16:37 AM 36.3033 -103.1631 71° East 430 495 37,000  Level Albuquerque Center
Thu 04:17:37 AM 36.3400 -103.0203 72° East 431 496 37,000 50 Level Albuquerque Center
Thu 04:18:37 AM 36.3792 -102.8792 71° East 429 494 37,100  Climbing Albuquerque Center
Thu 04:19:38 AM 36.4089 -102.7631 72° East 427 491 37,000 -50 Descending Albuquerque Center
Thu 04:20:38 AM 36.4464 -102.6233 72° East 427 491 37,000  Level Albuquerque Center
Thu 04:21:38 AM 36.4839 -102.4822 72° East 429 494 37,000  Level Albuquerque Center
Thu 04:22:38 AM 36.5208 -102.3417 72° East 429 494 37,000  Level Albuquerque Center
Thu 04:23:39 AM 36.5639 -102.1744 72° East 425 489 37,000  Level Albuquerque Center
Thu 04:24:39 AM 36.5981 -102.0442 72° East 426 490 37,000  Level Albuquerque Center
Thu 04:25:39 AM 36.6325 -101.9108 72° East 423 487 37,000  Level Albuquerque Center
Thu 04:26:39 AM 36.6728 -101.7544 72° East 426 490 37,000  Level Albuquerque Center
Thu 04:27:39 AM 36.7064 -101.6211 73° East 424 488 37,000  Level Albuquerque Center
Thu 04:28:40 AM 36.7394 -101.4883 73° East 422 486 37,000  Level Albuquerque Center
Thu 04:29:40 AM 36.7725 -101.3572 72° East 418 481 37,000  Level Albuquerque Center
Thu 04:30:40 AM 36.8114 -101.2056 72° East 414 476 37,000  Level Albuquerque Center
Thu 04:31:59 AM 36.8542 -101.0339 73° East 409 471 37,000  Level Kansas City Center
Thu 04:32:59 AM 36.8850 -100.9058 73° East 406 467 37,000  Level Kansas City Center
Thu 04:34:00 AM 36.9231 -100.7561 72° East 406 467 37,000  Level Kansas City Center
Thu 04:35:00 AM 36.9542 -100.6286 73° East 405 466 37,000  Level Kansas City Center
Thu 04:36:01 AM 36.9861 -100.5003 73° East 405 466 37,000  Level Kansas City Center
Thu 04:37:01 AM 37.0222 -100.3492 73° East 406 467 37,000  Level Kansas City Center
Thu 04:38:02 AM 37.0536 -100.2192 73° East 409 471 37,000  Level Kansas City Center
Thu 04:39:02 AM 37.0853 -100.0886 73° East 411 473 37,000 50 Level Kansas City Center
Thu 04:40:03 AM 37.1219 -99.9344 73° East 413 475 37,100  Climbing Kansas City Center
Thu 04:41:03 AM 37.1531 -99.8019 74° East 415 478 37,000 -50 Descending Kansas City Center
Thu 04:42:04 AM 37.1836 -99.6706 74° East 414 476 37,000  Level Kansas City Center
Thu 04:43:04 AM 37.2208 -99.5150 73° East 416 479 37,000  Level Kansas City Center
Thu 04:44:04 AM 37.2472 -99.3969 74° East 418 481 37,000  Level Kansas City Center
Thu 04:45:05 AM 37.2803 -99.2567 73° East 417 480 37,000  Level Kansas City Center
Thu 04:46:05 AM 37.3125 -99.1183 74° East 420 483 37,000  Level Kansas City Center
Thu 04:47:06 AM 37.3453 -98.9714 74° East 425 489 37,000  Level Kansas City Center
Thu 04:48:06 AM 37.3767 -98.8289 74° East 425 489 37,000  Level Kansas City Center
Thu 04:49:07 AM 37.4089 -98.6869 74° East 423 487 37,000  Level Kansas City Center
Thu 04:50:07 AM 37.4408 -98.5475 74° East 419 482 37,000  Level Kansas City Center
Thu 04:51:07 AM 37.4792 -98.3769 74° East 423 487 37,000  Level Kansas City Center
Thu 04:52:08 AM 37.5114 -98.2350 74° East 423 487 37,000  Level Kansas City Center
Thu 04:53:08 AM 37.5422 -98.0919 75° East 426 490 37,000  Level Kansas City Center
Thu 04:54:09 AM 37.5742 -97.9481 74° East 429 494 37,000  Level Kansas City Center
Thu 04:55:09 AM 37.6044 -97.8022 75° East 434 499 37,000  Level Kansas City Center
Thu 04:56:09 AM 37.6339 -97.6692 74° East 436 502 37,000  Level Kansas City Center
Thu 04:57:10 AM 37.6658 -97.5225 75° East 433 498 37,000  Level Kansas City Center
Thu 04:58:10 AM 37.7017 -97.3642 74° East 439 505 37,000  Level Kansas City Center
Thu 04:59:11 AM 37.7319 -97.2156 76° East 439 505 37,000  Level Kansas City Center
Thu 05:00:11 AM 37.7631 -97.0683 75° East 436 502 37,000  Level Kansas City Center
Thu 05:01:11 AM 37.7942 -96.9189 75° East 440 506 37,000  Level Kansas City Center
Thu 05:02:12 AM 37.8258 -96.7694 75° East 440 506 37,000  Level Kansas City Center
Thu 05:03:12 AM 37.8567 -96.6172 76° East 446 513 37,000 50 Level Kansas City Center
Thu 05:04:12 AM 37.8881 -96.4653 75° East 446 513 37,100  Climbing Kansas City Center
Thu 05:05:13 AM 37.9186 -96.3150 76° East 443 510 37,000 -50 Descending Kansas City Center
Thu 05:06:13 AM 37.9483 -96.1658 76° East 437 503 37,000  Level Kansas City Center
Thu 05:07:13 AM 37.9794 -95.9961 77° East 432 497 37,000 -50 Level Kansas City Center
Thu 05:08:14 AM 38.0058 -95.8528 77° East 437 503 36,900  Descending Kansas City Center
Thu 05:09:14 AM 38.0319 -95.7064 77° East 444 511 37,000 50 Climbing Kansas City Center
Thu 05:10:14 AM 38.0597 -95.5603 76° East 447 514 37,000  Level Kansas City Center
Thu 05:11:15 AM 38.0897 -95.3878 77° East 449 517 37,000  Level Kansas City Center
Thu 05:12:15 AM 38.1172 -95.2381 77° East 452 520 37,000  Level Kansas City Center
Thu 05:13:15 AM 38.1431 -95.0878 78° East 456 525 37,000  Level Kansas City Center
Thu 05:14:16 AM 38.1744 -94.9147 77° East 453 521 37,000  Level Kansas City Center
Thu 05:15:16 AM 38.2000 -94.7633 78° East 456 525 37,000  Level Kansas City Center
Thu 05:16:16 AM 38.2258 -94.6119 78° East 459 528 37,000  Level Kansas City Center
Thu 05:17:17 AM 38.2572 -94.4328 77° East 463 533 37,000  Level Kansas City Center
Thu 05:18:17 AM 38.2828 -94.2814 78° East 462 532 37,000  Level Kansas City Center
Thu 05:19:17 AM 38.3086 -94.1311 78° East 459 528 37,000  Level Kansas City Center
Thu 05:20:18 AM 38.3350 -93.9708 78° East 456 525 37,000  Level Kansas City Center
Thu 05:21:19 AM 38.3597 -93.8133 79° East 453 521 37,000  Level Kansas City Center
Thu 05:22:18 AM 38.3867 -93.6550 78° East 454 522 37,000  Level Kansas City Center
Thu 05:23:19 AM 38.4114 -93.4953 79° East 457 526 37,000  Level Kansas City Center
Thu 05:24:19 AM 38.4383 -93.3361 78° East 457 526 37,000  Level Kansas City Center
Thu 05:25:19 AM 38.4642 -93.1758 78° East 458 527 37,000  Level Kansas City Center
Thu 05:26:20 AM 38.4906 -93.0164 78° East 457 526 37,000 -694 Level Kansas City Center
Thu 05:27:20 AM 38.5150 -92.8569 79° East 457 526 35,600 -2,200 Descending Kansas City Center
Thu 05:28:20 AM 38.5394 -92.6975 79° East 455 524 32,600 -2,900 Descending Kansas City Center
Thu 05:29:20 AM 38.5647 -92.5369 79° East 456 525 29,800 -2,628 Descending Kansas City Center
Thu 05:30:21 AM 38.5886 -92.3781 79° East 454 522 27,300 -2,479 Descending Kansas City Center
Thu 05:31:21 AM 38.6111 -92.2264 79° East 439 505 24,800 -2,400 Descending Kansas City Center
Thu 05:32:21 AM 38.6336 -92.0792 79° East 423 487 22,500 -2,281 Descending Kansas City Center
Thu 05:33:22 AM 38.6539 -91.9344 80° East 415 478 20,200 -2,182 Descending Kansas City Center
Thu 05:34:22 AM 38.6758 -91.7928 79° East 407 468 18,100 -2,000 Descending Kansas City Center
Thu 05:35:22 AM 38.6942 -91.6542 80° East 398 458 16,200 -1,800 Descending Kansas City Center
Thu 05:36:22 AM 38.7125 -91.5369 79° East 391 450 14,500 -1,785 Descending Kansas City Center
Thu 05:37:23 AM 38.7303 -91.4044 80° East 383 441 12,600 -1,835 Descending Kansas City Center
Thu 05:38:23 AM 38.7489 -91.2764 79° East 370 426 10,800 -1,300 Descending Kansas City Center
Thu 05:39:23 AM 38.7672 -91.1569 79° East 350 403 10,000 -893 Descending Kansas City Center
Thu 05:40:24 AM 38.7831 -91.0467 80° East 320 368 9,000 -1,488 Descending Kansas City Center
Thu 05:41:24 AM 38.7956 -90.9500 81° East 283 326 7,000 -1,750 Descending Kansas City Center
Thu 05:42:24 AM 38.8094 -90.8514 80° East 281 323 5,500 -1,450 Descending Kansas City Center
Thu 05:43:24 AM 38.8228 -90.7553 80° East 276 318 4,100 -744 Descending Kansas City Center
Thu 05:44:25 AM 38.8350 -90.6600 81° East 271 312 4,000 -198 Descending Kansas City Center
Thu 05:45:25 AM 38.8331 -90.5789 92° East 240 276 3,700 -300 Descending Kansas City Center

Login

Don't have an account? Register now (free) for customized features, flight alerts, and more!